createdAt,value
2022-12-12T20:07:40.417Z,22.00
2022-12-12T20:10:07.532Z,22.00
2022-12-12T20:12:34.235Z,21.80
2022-12-12T20:15:00.937Z,21.70
2022-12-12T20:17:27.684Z,21.50
2022-12-12T20:19:54.435Z,21.30
2022-12-12T20:22:21.151Z,21.20
2022-12-12T20:24:47.848Z,21.00
2022-12-12T20:27:15.412Z,21.00
2022-12-12T20:29:42.162Z,20.90
2022-12-12T20:32:09.639Z,20.90
2022-12-12T20:34:36.405Z,20.80
2022-12-12T20:37:03.147Z,20.80
2022-12-12T20:39:29.936Z,20.80
2022-12-12T20:41:57.585Z,20.70
2022-12-12T20:44:25.504Z,20.70
2022-12-12T20:46:52.736Z,20.70
2022-12-12T20:49:22.226Z,20.70
2022-12-12T20:51:57.953Z,20.70
2022-12-12T20:54:27.309Z,20.70
2022-12-12T20:56:54.701Z,20.70
2022-12-12T20:59:21.858Z,20.70
2022-12-12T21:01:48.643Z,20.70
2022-12-12T21:04:15.637Z,20.70
2022-12-12T21:06:44.843Z,20.70
2022-12-12T21:09:16.183Z,20.70
2022-12-12T21:11:43.474Z,20.70
2022-12-12T21:14:10.435Z,20.70
2022-12-12T21:16:39.200Z,20.70
2022-12-12T21:19:12.826Z,20.70
2022-12-12T21:21:41.722Z,20.70
2022-12-12T21:24:09.870Z,20.70
2022-12-12T21:26:36.711Z,20.80
2022-12-12T21:29:04.903Z,20.80
2022-12-12T21:31:34.645Z,20.70
2022-12-12T21:34:01.970Z,20.80
2022-12-12T21:36:29.807Z,20.70
2022-12-12T21:38:58.567Z,20.70
2022-12-12T21:41:26.226Z,20.80
2022-12-12T21:43:54.524Z,20.80
2022-12-12T21:46:25.871Z,20.80
2022-12-12T21:49:12.422Z,20.80
2022-12-12T21:51:40.662Z,20.80
2022-12-12T21:54:09.186Z,20.80
2022-12-12T21:56:35.944Z,20.70
2022-12-12T21:59:03.434Z,20.70
2022-12-12T22:01:32.071Z,20.70
2022-12-12T22:03:59.650Z,20.80
2022-12-12T22:06:31.969Z,20.70
2022-12-12T22:09:00.647Z,20.70
2022-12-12T22:11:40.119Z,20.70
2022-12-12T22:14:15.760Z,20.70
2022-12-12T22:16:42.572Z,20.70
2022-12-12T22:19:12.277Z,20.70
2022-12-12T22:21:39.458Z,20.70
2022-12-12T22:24:06.680Z,20.70
2022-12-12T22:26:39.814Z,20.70
2022-12-12T22:29:10.437Z,20.60
2022-12-12T22:31:38.904Z,20.60
2022-12-12T22:34:17.033Z,20.60
2022-12-12T22:36:45.467Z,20.60
2022-12-12T22:39:18.452Z,20.60
2022-12-12T22:41:45.669Z,20.60
2022-12-12T22:44:15.790Z,20.60
2022-12-12T22:46:44.537Z,20.60
2022-12-12T22:49:13.904Z,20.60
2022-12-12T22:51:41.065Z,20.60
2022-12-12T22:54:07.795Z,20.60
2022-12-12T22:56:36.656Z,20.60
2022-12-12T22:59:04.532Z,20.60
2022-12-12T23:01:31.601Z,20.60
2022-12-12T23:03:58.985Z,20.50
2022-12-12T23:06:31.737Z,20.60
2022-12-12T23:09:16.686Z,20.50
2022-12-12T23:11:45.163Z,20.50
2022-12-12T23:14:14.847Z,20.50
2022-12-12T23:16:42.078Z,20.50
2022-12-12T23:19:09.570Z,20.50
2022-12-12T23:21:37.496Z,20.40
2022-12-12T23:24:05.632Z,20.50
2022-12-12T23:26:35.691Z,20.40
2022-12-12T23:29:03.892Z,20.40
2022-12-12T23:31:33.532Z,20.40
2022-12-12T23:34:14.076Z,20.40
2022-12-12T23:36:42.236Z,20.40
2022-12-12T23:39:10.336Z,20.30
2022-12-12T23:41:37.142Z,20.30
2022-12-12T23:44:05.547Z,20.30
2022-12-12T23:46:33.053Z,20.30
2022-12-12T23:49:04.830Z,20.30
2022-12-12T23:51:34.321Z,20.30
2022-12-12T23:54:02.949Z,20.20
2022-12-12T23:56:30.264Z,20.20
2022-12-12T23:58:58.963Z,20.20
